Montrose, AL (36559)

7:54 PM CDT on July 28, 2016 (GMT -0500)
Ecor Rouge | | Change Station

Elev 0 ft 30.56 °N, 87.90 °W | Updated 11 minutes ago

Clear
Clear
88.2 °F
Feels Like 85 °F
N
9.0
Wind Variable Wind from SW
Gusts 12.0 mph

Today
High -- | Low -- °F
--% Chance of Precip.
Yesterday
High -- | Low -- °F
Precip. -- in
Pressure 30.01 in
Visibility 10.0 miles
Clouds Clear
Heat Index 85 °F
Dew Point Not available.
Humidity Not available.
Rainfall --
Snow Depth Not available.
6:07 AM 7:48 PM
Waning Crescent, 27% visible
METAR KCQF 290035Z AUTO 00000KT 10SM CLR 27/25 A3001 RMK AO2
Pressure 30.01 in
Visibility 10.0 miles
Clouds Clear
Heat Index 85 °F
Dew Point Not available.
Humidity Not available.
Rainfall --
Snow Depth Not available.
6:07 AM 7:48 PM
Waning Crescent, 27% visible
METAR KCQF 290035Z AUTO 00000KT 10SM CLR 27/25 A3001 RMK AO2

10-Day Weather Forecast

Almanac

Astronomy

Jul. 28, 2016 Rise Set
Actual Time
Civil Twilight
Nautical Twilight
Astronomical Twilight
Moon
Length of Visible Light
Length of Day
Tomorrow will be .
, % of the Moon is Illuminated

Today's Extremes

State Highs State Lows

Community

WunderPhotos

Upload Photos

1,928,240 photos uploaded!

WunderBlog® & News

Nearby

Air Quality

  Air Quality AQ Index Pollutant
Not available.

Snow Depth

Station Depth Elevation

Earthquake Activity

City Distance Mag. Time & Date
Minimum magnitude displayed is 2.5.

Coastal Water Temperatures

Place Temperature

Stations

Nearby Weather Stations

Station Location Temp. Windchill Dew Point Humidity Wind Precip. Elev Updated Type
                   

Watches & Warnings

There are currently no watches in effect.